sensor_id;sensor_type;location;lat;lon;timestamp;pressure;altitude;pressure_sealevel;temperature;humidity
76864;BME280;65834;52.364;9.754;2024-02-28T00:02:12;101290.34;;;5.93;nan
76864;BME280;65834;52.364;9.754;2024-02-28T00:04:42;101292.59;;;5.88;nan
76864;BME280;65834;52.364;9.754;2024-02-28T00:07:12;101298.22;;;5.85;nan
76864;BME280;65834;52.364;9.754;2024-02-28T00:09:42;101284.78;;;5.75;nan
76864;BME280;65834;52.364;9.754;2024-02-28T00:12:12;101301.16;;;5.82;nan
76864;BME280;65834;52.364;9.754;2024-02-28T00:14:45;101299.09;;;5.85;nan
76864;BME280;65834;52.364;9.754;2024-02-28T00:17:15;101309.38;;;5.80;nan
76864;BME280;65834;52.364;9.754;2024-02-28T00:19:44;101300.66;;;5.88;nan
76864;BME280;65834;52.364;9.754;2024-02-28T00:22:14;101300.91;;;5.85;nan
76864;BME280;65834;52.364;9.754;2024-02-28T00:24:44;101303.19;;;5.89;nan
76864;BME280;65834;52.364;9.754;2024-02-28T00:27:15;101307.28;;;5.84;nan
76864;BME280;65834;52.364;9.754;2024-02-28T00:29:47;101311.50;;;5.77;nan
76864;BME280;65834;52.364;9.754;2024-02-28T00:32:17;101306.53;;;5.82;nan
76864;BME280;65834;52.364;9.754;2024-02-28T00:34:47;101293.84;;;5.84;nan
76864;BME280;65834;52.364;9.754;2024-02-28T00:37:16;101293.13;;;5.82;nan
76864;BME280;65834;52.364;9.754;2024-02-28T00:39:46;101299.50;;;5.81;nan
76864;BME280;65834;52.364;9.754;2024-02-28T00:42:16;101291.03;;;5.85;nan
76864;BME280;65834;52.364;9.754;2024-02-28T00:44:49;101293.97;;;5.82;nan
76864;BME280;65834;52.364;9.754;2024-02-28T00:47:19;101296.53;;;5.84;nan
76864;BME280;65834;52.364;9.754;2024-02-28T00:49:49;101307.53;;;5.71;nan
76864;BME280;65834;52.364;9.754;2024-02-28T00:52:18;101303.16;;;5.70;nan
76864;BME280;65834;52.364;9.754;2024-02-28T00:54:48;101294.25;;;5.70;nan
76864;BME280;65834;52.364;9.754;2024-02-28T00:57:18;101298.63;;;5.71;nan
76864;BME280;65834;52.364;9.754;2024-02-28T00:59:51;101299.34;;;5.73;nan
76864;BME280;65834;52.364;9.754;2024-02-28T01:02:21;101298.63;;;5.61;nan
76864;BME280;65834;52.364;9.754;2024-02-28T01:04:51;101300.91;;;5.66;nan
76864;BME280;65834;52.364;9.754;2024-02-28T01:07:21;101297.63;;;5.62;nan
76864;BME280;65834;52.364;9.754;2024-02-28T01:09:51;101300.16;;;5.64;nan
76864;BME280;65834;52.364;9.754;2024-02-28T01:12:21;101299.19;;;5.65;nan
76864;BME280;65834;52.364;9.754;2024-02-28T01:14:54;101306.25;;;5.66;nan
76864;BME280;65834;52.364;9.754;2024-02-28T01:17:23;101303.59;;;5.66;nan
76864;BME280;65834;52.364;9.754;2024-02-28T01:19:53;101307.66;;;5.70;nan
76864;BME280;65834;52.364;9.754;2024-02-28T01:22:22;101308.38;;;5.62;nan
76864;BME280;65834;52.364;9.754;2024-02-28T01:24:52;101310.47;;;5.59;nan
76864;BME280;65834;52.364;9.754;2024-02-28T01:27:22;101311.88;;;5.53;nan
76864;BME280;65834;52.364;9.754;2024-02-28T01:29:54;101307.38;;;5.54;nan
76864;BME280;65834;52.364;9.754;2024-02-28T01:32:24;101302.28;;;5.51;nan
76864;BME280;65834;52.364;9.754;2024-02-28T01:34:54;101299.44;;;5.52;nan
76864;BME280;65834;52.364;9.754;2024-02-28T01:37:24;101292.06;;;5.44;nan
76864;BME280;65834;52.364;9.754;2024-02-28T01:39:54;101296.75;;;5.52;nan
76864;BME280;65834;52.364;9.754;2024-02-28T01:42:23;101299.31;;;5.44;nan
76864;BME280;65834;52.364;9.754;2024-02-28T01:44:56;101298.28;;;5.45;nan
76864;BME280;65834;52.364;9.754;2024-02-28T01:47:26;101300.94;;;5.35;nan
76864;BME280;65834;52.364;9.754;2024-02-28T01:49:56;101297.72;;;5.32;nan
76864;BME280;65834;52.364;9.754;2024-02-28T01:52:26;101298.81;;;5.20;nan
76864;BME280;65834;52.364;9.754;2024-02-28T01:54:57;101290.03;;;5.18;nan
76864;BME280;65834;52.364;9.754;2024-02-28T01:57:27;101294.44;;;5.19;nan
76864;BME280;65834;52.364;9.754;2024-02-28T02:00:00;101279.16;;;5.10;nan
76864;BME280;65834;52.364;9.754;2024-02-28T02:02:31;101299.47;;;5.12;nan
76864;BME280;65834;52.364;9.754;2024-02-28T02:05:01;101293.69;;;5.07;nan
76864;BME280;65834;52.364;9.754;2024-02-28T02:07:31;101284.06;;;5.05;nan
76864;BME280;65834;52.364;9.754;2024-02-28T02:10:02;101277.03;;;5.04;nan
76864;BME280;65834;52.364;9.754;2024-02-28T02:12:35;101285.91;;;5.04;nan
76864;BME280;65834;52.364;9.754;2024-02-28T02:15:08;101277.41;;;4.99;nan
76864;BME280;65834;52.364;9.754;2024-02-28T02:17:38;101267.69;;;4.98;nan
76864;BME280;65834;52.364;9.754;2024-02-28T02:20:10;101271.03;;;4.90;nan
76864;BME280;65834;52.364;9.754;2024-02-28T02:22:43;101283.91;;;4.97;nan
76864;BME280;65834;52.364;9.754;2024-02-28T02:25:13;101291.50;;;4.91;nan
76864;BME280;65834;52.364;9.754;2024-02-28T02:27:43;101295.03;;;4.92;nan
76864;BME280;65834;52.364;9.754;2024-02-28T02:30:13;101287.72;;;4.94;nan
76864;BME280;65834;52.364;9.754;2024-02-28T02:32:43;101286.31;;;5.00;nan
76864;BME280;65834;52.364;9.754;2024-02-28T02:35:13;101283.47;;;4.91;nan
76864;BME280;65834;52.364;9.754;2024-02-28T02:37:45;101284.88;;;4.86;nan
76864;BME280;65834;52.364;9.754;2024-02-28T02:40:15;101279.03;;;4.81;nan
76864;BME280;65834;52.364;9.754;2024-02-28T02:42:45;101269.97;;;4.72;nan
76864;BME280;65834;52.364;9.754;2024-02-28T02:45:15;101261.94;;;4.72;nan
76864;BME280;65834;52.364;9.754;2024-02-28T02:47:45;101276.56;;;4.68;nan
76864;BME280;65834;52.364;9.754;2024-02-28T02:50:15;101276.84;;;4.65;nan
76864;BME280;65834;52.364;9.754;2024-02-28T02:52:47;101276.78;;;4.56;nan
76864;BME280;65834;52.364;9.754;2024-02-28T02:55:17;101280.75;;;4.52;nan
76864;BME280;65834;52.364;9.754;2024-02-28T02:57:47;101282.88;;;4.58;nan
76864;BME280;65834;52.364;9.754;2024-02-28T03:00:17;101273.84;;;4.59;nan
76864;BME280;65834;52.364;9.754;2024-02-28T03:02:47;101273.84;;;4.59;nan
76864;BME280;65834;52.364;9.754;2024-02-28T03:05:17;101279.16;;;4.49;nan
76864;BME280;65834;52.364;9.754;2024-02-28T03:07:49;101280.25;;;4.47;nan
76864;BME280;65834;52.364;9.754;2024-02-28T03:10:19;101282.34;;;4.43;nan
76864;BME280;65834;52.364;9.754;2024-02-28T03:12:49;101280.41;;;4.45;nan
76864;BME280;65834;52.364;9.754;2024-02-28T03:15:19;101277.47;;;4.48;nan
76864;BME280;65834;52.364;9.754;2024-02-28T03:17:49;101284.06;;;4.44;nan
76864;BME280;65834;52.364;9.754;2024-02-28T03:20:19;101291.06;;;4.35;nan
76864;BME280;65834;52.364;9.754;2024-02-28T03:22:52;101294.34;;;4.39;nan
76864;BME280;65834;52.364;9.754;2024-02-28T03:25:22;101293.03;;;4.33;nan
76864;BME280;65834;52.364;9.754;2024-02-28T03:27:51;101298.31;;;4.24;nan
76864;BME280;65834;52.364;9.754;2024-02-28T03:30:22;101302.66;;;4.25;nan
76864;BME280;65834;52.364;9.754;2024-02-28T03:32:51;101301.84;;;4.24;nan
76864;BME280;65834;52.364;9.754;2024-02-28T03:35:21;101305.75;;;4.20;nan
76864;BME280;65834;52.364;9.754;2024-02-28T03:37:57;101301.19;;;4.32;nan
76864;BME280;65834;52.364;9.754;2024-02-28T03:40:27;101304.53;;;4.24;nan
76864;BME280;65834;52.364;9.754;2024-02-28T03:42:56;101306.13;;;4.16;nan
76864;BME280;65834;52.364;9.754;2024-02-28T03:45:28;101310.50;;;4.17;nan
76864;BME280;65834;52.364;9.754;2024-02-28T03:47:57;101316.47;;;4.20;nan
76864;BME280;65834;52.364;9.754;2024-02-28T03:50:27;101324.16;;;4.14;nan
76864;BME280;65834;52.364;9.754;2024-02-28T03:53:00;101322.13;;;4.06;nan
76864;BME280;65834;52.364;9.754;2024-02-28T03:55:30;101321.84;;;4.09;nan
76864;BME280;65834;52.364;9.754;2024-02-28T04:01:24;101323.22;;;4.04;nan
76864;BME280;65834;52.364;9.754;2024-02-28T04:03:54;101324.47;;;4.00;nan
76864;BME280;65834;52.364;9.754;2024-02-28T04:06:24;101340.91;;;3.95;nan
76864;BME280;65834;52.364;9.754;2024-02-28T04:08:57;101338.56;;;4.02;nan
76864;BME280;65834;52.364;9.754;2024-02-28T04:11:27;101328.72;;;4.02;nan
76864;BME280;65834;52.364;9.754;2024-02-28T04:13:57;101326.31;;;3.99;nan
76864;BME280;65834;52.364;9.754;2024-02-28T04:16:26;101334.19;;;4.01;nan
76864;BME280;65834;52.364;9.754;2024-02-28T04:18:56;101338.81;;;3.99;nan
76864;BME280;65834;52.364;9.754;2024-02-28T04:21:26;101338.69;;;4.00;nan
76864;BME280;65834;52.364;9.754;2024-02-28T04:23:58;101342.72;;;3.95;nan
76864;BME280;65834;52.364;9.754;2024-02-28T04:26:28;101335.09;;;3.90;nan
76864;BME280;65834;52.364;9.754;2024-02-28T04:28:58;101340.81;;;3.86;nan
76864;BME280;65834;52.364;9.754;2024-02-28T04:31:29;101335.00;;;3.80;nan
76864;BME280;65834;52.364;9.754;2024-02-28T04:33:59;101333.19;;;3.81;nan
76864;BME280;65834;52.364;9.754;2024-02-28T04:36:28;101341.47;;;3.78;nan
76864;BME280;65834;52.364;9.754;2024-02-28T04:39:01;101335.50;;;3.74;nan
76864;BME280;65834;52.364;9.754;2024-02-28T04:41:34;101339.53;;;3.69;nan
76864;BME280;65834;52.364;9.754;2024-02-28T04:44:04;101346.56;;;3.70;nan
76864;BME280;65834;52.364;9.754;2024-02-28T04:46:34;101356.06;;;3.74;nan
76864;BME280;65834;52.364;9.754;2024-02-28T04:49:04;101359.22;;;3.68;nan
76864;BME280;65834;52.364;9.754;2024-02-28T04:51:35;101365.78;;;3.64;nan
76864;BME280;65834;52.364;9.754;2024-02-28T04:54:08;101362.16;;;3.65;nan
76864;BME280;65834;52.364;9.754;2024-02-28T04:56:39;101361.94;;;3.57;nan
76864;BME280;65834;52.364;9.754;2024-02-28T04:59:12;101370.06;;;3.55;nan
76864;BME280;65834;52.364;9.754;2024-02-28T05:01:41;101373.00;;;3.52;nan
76864;BME280;65834;52.364;9.754;2024-02-28T05:04:13;101377.50;;;3.52;nan
76864;BME280;65834;52.364;9.754;2024-02-28T05:06:43;101374.81;;;3.52;nan
76864;BME280;65834;52.364;9.754;2024-02-28T05:09:15;101387.47;;;3.50;nan
76864;BME280;65834;52.364;9.754;2024-02-28T05:11:45;101386.63;;;3.49;nan
76864;BME280;65834;52.364;9.754;2024-02-28T05:14:15;101390.41;;;3.47;nan
76864;BME280;65834;52.364;9.754;2024-02-28T05:16:46;101388.91;;;3.54;nan
76864;BME280;65834;52.364;9.754;2024-02-28T05:19:17;101395.59;;;3.48;nan
76864;BME280;65834;52.364;9.754;2024-02-28T05:21:47;101393.69;;;3.50;nan
76864;BME280;65834;52.364;9.754;2024-02-28T05:24:20;101393.78;;;3.49;nan
76864;BME280;65834;52.364;9.754;2024-02-28T05:26:49;101398.78;;;3.53;nan
76864;BME280;65834;52.364;9.754;2024-02-28T05:29:19;101394.50;;;3.51;nan
76864;BME280;65834;52.364;9.754;2024-02-28T05:31:49;101401.91;;;3.58;nan
76864;BME280;65834;52.364;9.754;2024-02-28T05:34:19;101390.63;;;3.55;nan
76864;BME280;65834;52.364;9.754;2024-02-28T05:36:49;101404.72;;;3.57;nan
76864;BME280;65834;52.364;9.754;2024-02-28T05:39:22;101408.59;;;3.64;nan
76864;BME280;65834;52.364;9.754;2024-02-28T05:41:52;101408.09;;;3.70;nan
76864;BME280;65834;52.364;9.754;2024-02-28T05:44:21;101406.66;;;3.66;nan
76864;BME280;65834;52.364;9.754;2024-02-28T05:46:51;101421.25;;;3.62;nan
76864;BME280;65834;52.364;9.754;2024-02-28T05:49:22;101418.56;;;3.73;nan
76864;BME280;65834;52.364;9.754;2024-02-28T05:51:52;101418.31;;;3.76;nan
76864;BME280;65834;52.364;9.754;2024-02-28T05:54:26;101424.63;;;3.64;nan
76864;BME280;65834;52.364;9.754;2024-02-28T05:56:56;101428.78;;;3.68;nan
76864;BME280;65834;52.364;9.754;2024-02-28T05:59:26;101433.25;;;3.78;nan
76864;BME280;65834;52.364;9.754;2024-02-28T06:01:56;101438.59;;;3.78;nan
76864;BME280;65834;52.364;9.754;2024-02-28T06:04:26;101446.13;;;3.84;nan
76864;BME280;65834;52.364;9.754;2024-02-28T06:06:56;101437.88;;;3.88;nan
76864;BME280;65834;52.364;9.754;2024-02-28T06:09:29;101430.31;;;3.81;nan
76864;BME280;65834;52.364;9.754;2024-02-28T06:11:58;101423.53;;;3.77;nan
76864;BME280;65834;52.364;9.754;2024-02-28T06:14:29;101433.59;;;3.85;nan
76864;BME280;65834;52.364;9.754;2024-02-28T06:16:58;101430.44;;;4.02;nan
76864;BME280;65834;52.364;9.754;2024-02-28T06:19:28;101433.22;;;4.01;nan
76864;BME280;65834;52.364;9.754;2024-02-28T06:21:58;101435.53;;;4.05;nan
76864;BME280;65834;52.364;9.754;2024-02-28T06:24:33;101431.63;;;3.98;nan
76864;BME280;65834;52.364;9.754;2024-02-28T06:27:04;101440.63;;;3.97;nan
76864;BME280;65834;52.364;9.754;2024-02-28T06:29:39;101441.13;;;3.91;nan
76864;BME280;65834;52.364;9.754;2024-02-28T06:32:09;101444.19;;;3.87;nan
76864;BME280;65834;52.364;9.754;2024-02-28T06:34:39;101444.91;;;3.89;nan
76864;BME280;65834;52.364;9.754;2024-02-28T06:37:09;101441.03;;;3.93;nan
76864;BME280;65834;52.364;9.754;2024-02-28T06:39:42;101435.78;;;3.91;nan
76864;BME280;65834;52.364;9.754;2024-02-28T06:42:12;101442.38;;;3.87;nan
76864;BME280;65834;52.364;9.754;2024-02-28T06:44:42;101455.63;;;3.89;nan
76864;BME280;65834;52.364;9.754;2024-02-28T06:47:11;101456.97;;;3.83;nan
76864;BME280;65834;52.364;9.754;2024-02-28T06:49:42;101459.75;;;3.93;nan
76864;BME280;65834;52.364;9.754;2024-02-28T06:52:11;101464.16;;;3.94;nan
76864;BME280;65834;52.364;9.754;2024-02-28T06:54:44;101451.38;;;3.86;nan
76864;BME280;65834;52.364;9.754;2024-02-28T06:57:14;101449.81;;;3.83;nan
76864;BME280;65834;52.364;9.754;2024-02-28T06:59:42;101451.47;;;3.84;nan
76864;BME280;65834;52.364;9.754;2024-02-28T07:02:11;101447.13;;;3.83;nan
76864;BME280;65834;52.364;9.754;2024-02-28T07:04:42;101454.16;;;3.84;nan
76864;BME280;65834;52.364;9.754;2024-02-28T07:07:12;101461.09;;;3.87;nan
76864;BME280;65834;52.364;9.754;2024-02-28T07:09:44;101461.22;;;3.86;nan
76864;BME280;65834;52.364;9.754;2024-02-28T07:12:14;101463.78;;;3.87;nan
76864;BME280;65834;52.364;9.754;2024-02-28T07:14:44;101457.94;;;3.93;nan
76864;BME280;65834;52.364;9.754;2024-02-28T07:17:13;101472.75;;;3.97;nan
76864;BME280;65834;52.364;9.754;2024-02-28T07:19:44;101473.25;;;4.02;nan
76864;BME280;65834;52.364;9.754;2024-02-28T07:22:13;101475.06;;;4.02;nan
76864;BME280;65834;52.364;9.754;2024-02-28T07:24:46;101476.63;;;4.04;nan
76864;BME280;65834;52.364;9.754;2024-02-28T07:27:16;101490.88;;;4.05;nan
76864;BME280;65834;52.364;9.754;2024-02-28T07:29:46;101485.78;;;4.02;nan
76864;BME280;65834;52.364;9.754;2024-02-28T07:32:15;101489.06;;;4.05;nan
76864;BME280;65834;52.364;9.754;2024-02-28T07:34:48;101484.88;;;4.12;nan
76864;BME280;65834;52.364;9.754;2024-02-28T07:37:18;101483.91;;;4.24;nan
76864;BME280;65834;52.364;9.754;2024-02-28T07:39:53;101475.03;;;4.24;nan
76864;BME280;65834;52.364;9.754;2024-02-28T07:42:23;101483.66;;;4.27;nan
76864;BME280;65834;52.364;9.754;2024-02-28T07:44:54;101481.69;;;4.29;nan
76864;BME280;65834;52.364;9.754;2024-02-28T07:47:24;101479.03;;;4.29;nan
76864;BME280;65834;52.364;9.754;2024-02-28T07:49:53;101487.75;;;4.31;nan
76864;BME280;65834;52.364;9.754;2024-02-28T07:52:23;101489.72;;;4.29;nan
76864;BME280;65834;52.364;9.754;2024-02-28T07:54:55;101495.69;;;4.33;nan
76864;BME280;65834;52.364;9.754;2024-02-28T07:57:25;101504.19;;;4.38;nan
76864;BME280;65834;52.364;9.754;2024-02-28T07:59:55;101499.53;;;4.40;nan
76864;BME280;65834;52.364;9.754;2024-02-28T08:02:25;101497.81;;;4.50;nan
76864;BME280;65834;52.364;9.754;2024-02-28T08:04:56;101491.25;;;4.43;nan
76864;BME280;65834;52.364;9.754;2024-02-28T08:07:25;101495.69;;;4.65;nan
76864;BME280;65834;52.364;9.754;2024-02-28T08:09:58;101498.09;;;4.68;nan
76864;BME280;65834;52.364;9.754;2024-02-28T08:12:28;101509.59;;;4.59;nan
76864;BME280;65834;52.364;9.754;2024-02-28T08:14:58;101511.56;;;4.57;nan
76864;BME280;65834;52.364;9.754;2024-02-28T08:17:28;101519.38;;;4.49;nan
76864;BME280;65834;52.364;9.754;2024-02-28T08:19:58;101519.00;;;4.53;nan
76864;BME280;65834;52.364;9.754;2024-02-28T08:22:28;101513.78;;;4.52;nan
76864;BME280;65834;52.364;9.754;2024-02-28T08:25:00;101519.25;;;4.50;nan
76864;BME280;65834;52.364;9.754;2024-02-28T08:27:30;101513.88;;;4.50;nan
76864;BME280;65834;52.364;9.754;2024-02-28T08:30:01;101517.88;;;4.56;nan
76864;BME280;65834;52.364;9.754;2024-02-28T08:32:30;101517.41;;;4.51;nan
76864;BME280;65834;52.364;9.754;2024-02-28T08:35:01;101520.31;;;4.59;nan
76864;BME280;65834;52.364;9.754;2024-02-28T08:37:30;101524.19;;;4.66;nan
76864;BME280;65834;52.364;9.754;2024-02-28T08:40:03;101523.22;;;4.67;nan
76864;BME280;65834;52.364;9.754;2024-02-28T08:42:33;101517.00;;;4.66;nan
76864;BME280;65834;52.364;9.754;2024-02-28T08:45:04;101512.34;;;4.68;nan
76864;BME280;65834;52.364;9.754;2024-02-28T08:47:34;101506.63;;;4.73;nan
76864;BME280;65834;52.364;9.754;2024-02-28T08:50:06;101520.63;;;4.76;nan
76864;BME280;65834;52.364;9.754;2024-02-28T08:52:36;101513.41;;;4.77;nan
76864;BME280;65834;52.364;9.754;2024-02-28T08:55:09;101522.06;;;4.80;nan
76864;BME280;65834;52.364;9.754;2024-02-28T08:57:39;101518.78;;;4.77;nan
76864;BME280;65834;52.364;9.754;2024-02-28T09:00:11;101516.56;;;4.82;nan
76864;BME280;65834;52.364;9.754;2024-02-28T09:02:42;101519.00;;;4.85;nan
76864;BME280;65834;52.364;9.754;2024-02-28T09:05:12;101521.53;;;4.86;nan
76864;BME280;65834;52.364;9.754;2024-02-28T09:07:41;101528.09;;;4.93;nan
76864;BME280;65834;52.364;9.754;2024-02-28T09:10:14;101524.19;;;4.98;nan
76864;BME280;65834;52.364;9.754;2024-02-28T09:12:48;101531.22;;;4.99;nan
76864;BME280;65834;52.364;9.754;2024-02-28T09:15:18;101524.03;;;4.99;nan
76864;BME280;65834;52.364;9.754;2024-02-28T09:17:48;101527.47;;;5.01;nan
76864;BME280;65834;52.364;9.754;2024-02-28T09:20:18;101521.69;;;5.06;nan
76864;BME280;65834;52.364;9.754;2024-02-28T09:22:48;101518.50;;;5.12;nan
76864;BME280;65834;52.364;9.754;2024-02-28T09:25:20;101533.47;;;5.14;nan
76864;BME280;65834;52.364;9.754;2024-02-28T09:27:53;101530.25;;;5.20;nan
76864;BME280;65834;52.364;9.754;2024-02-28T09:30:24;101522.94;;;5.22;nan
76864;BME280;65834;52.364;9.754;2024-02-28T09:33:02;101527.19;;;5.25;nan
76864;BME280;65834;52.364;9.754;2024-02-28T09:35:32;101514.06;;;5.22;nan
76864;BME280;65834;52.364;9.754;2024-02-28T09:38:03;101525.97;;;5.29;nan
76864;BME280;65834;52.364;9.754;2024-02-28T09:40:36;101530.31;;;5.30;nan
76864;BME280;65834;52.364;9.754;2024-02-28T09:43:11;101527.53;;;5.31;nan
76864;BME280;65834;52.364;9.754;2024-02-28T09:45:45;101524.84;;;5.31;nan
76864;BME280;65834;52.364;9.754;2024-02-28T09:48:16;101543.69;;;5.41;nan
76864;BME280;65834;52.364;9.754;2024-02-28T09:50:46;101538.88;;;5.44;nan
76864;BME280;65834;52.364;9.754;2024-02-28T09:53:16;101539.63;;;5.46;nan
76864;BME280;65834;52.364;9.754;2024-02-28T09:55:49;101542.91;;;5.50;nan
76864;BME280;65834;52.364;9.754;2024-02-28T09:58:19;101544.63;;;5.61;nan
76864;BME280;65834;52.364;9.754;2024-02-28T10:00:49;101546.53;;;5.70;nan
76864;BME280;65834;52.364;9.754;2024-02-28T10:03:21;101543.19;;;5.77;nan
76864;BME280;65834;52.364;9.754;2024-02-28T10:05:51;101553.75;;;5.79;nan
76864;BME280;65834;52.364;9.754;2024-02-28T10:08:21;101555.47;;;5.80;nan
76864;BME280;65834;52.364;9.754;2024-02-28T10:10:53;101559.97;;;5.90;nan
76864;BME280;65834;52.364;9.754;2024-02-28T10:13:25;101549.78;;;5.94;nan
76864;BME280;65834;52.364;9.754;2024-02-28T10:15:54;101556.91;;;6.05;nan
76864;BME280;65834;52.364;9.754;2024-02-28T10:18:25;101563.13;;;6.05;nan
76864;BME280;65834;52.364;9.754;2024-02-28T10:20:55;101559.94;;;6.21;nan
76864;BME280;65834;52.364;9.754;2024-02-28T10:23:26;101563.59;;;6.20;nan
76864;BME280;65834;52.364;9.754;2024-02-28T10:26:00;101565.59;;;6.37;nan
76864;BME280;65834;52.364;9.754;2024-02-28T10:28:30;101560.81;;;6.40;nan
76864;BME280;65834;52.364;9.754;2024-02-28T10:31:00;101573.28;;;6.41;nan
76864;BME280;65834;52.364;9.754;2024-02-28T10:33:30;101577.97;;;6.49;nan
76864;BME280;65834;52.364;9.754;2024-02-28T10:36:01;101583.63;;;6.55;nan
76864;BME280;65834;52.364;9.754;2024-02-28T10:38:32;101586.47;;;6.54;nan
76864;BME280;65834;52.364;9.754;2024-02-28T10:41:05;101581.50;;;6.59;nan
76864;BME280;65834;52.364;9.754;2024-02-28T10:43:38;101583.66;;;6.65;nan
76864;BME280;65834;52.364;9.754;2024-02-28T10:46:09;101592.28;;;6.69;nan
76864;BME280;65834;52.364;9.754;2024-02-28T10:48:54;101592.16;;;6.70;nan
76864;BME280;65834;52.364;9.754;2024-02-28T10:51:25;101582.53;;;6.77;nan
76864;BME280;65834;52.364;9.754;2024-02-28T10:54:02;101580.41;;;6.81;nan
76864;BME280;65834;52.364;9.754;2024-02-28T10:56:36;101565.44;;;6.88;nan
76864;BME280;65834;52.364;9.754;2024-02-28T10:59:07;101568.81;;;6.90;nan
76864;BME280;65834;52.364;9.754;2024-02-28T11:01:39;101556.81;;;6.94;nan
76864;BME280;65834;52.364;9.754;2024-02-28T11:04:10;101569.13;;;6.96;nan
76864;BME280;65834;52.364;9.754;2024-02-28T11:06:48;101552.84;;;6.88;nan
76864;BME280;65834;52.364;9.754;2024-02-28T11:09:20;101567.84;;;7.00;nan
76864;BME280;65834;52.364;9.754;2024-02-28T11:11:56;101569.13;;;6.96;nan
76864;BME280;65834;52.364;9.754;2024-02-28T11:14:25;101572.22;;;7.01;nan
76864;BME280;65834;52.364;9.754;2024-02-28T11:17:00;101556.66;;;7.05;nan
76864;BME280;65834;52.364;9.754;2024-02-28T11:19:31;101560.78;;;7.09;nan
76864;BME280;65834;52.364;9.754;2024-02-28T11:22:02;101561.63;;;7.09;nan
76864;BME280;65834;52.364;9.754;2024-02-28T11:24:34;101563.31;;;7.20;nan
76864;BME280;65834;52.364;9.754;2024-02-28T11:27:11;101560.75;;;7.28;nan
76864;BME280;65834;52.364;9.754;2024-02-28T11:29:42;101551.56;;;7.31;nan
76864;BME280;65834;52.364;9.754;2024-02-28T11:32:14;101555.50;;;7.36;nan
76864;BME280;65834;52.364;9.754;2024-02-28T11:34:43;101550.00;;;7.38;nan
76864;BME280;65834;52.364;9.754;2024-02-28T11:37:14;101548.97;;;7.39;nan
76864;BME280;65834;52.364;9.754;2024-02-28T11:39:46;101560.88;;;7.46;nan
76864;BME280;65834;52.364;9.754;2024-02-28T11:42:19;101559.44;;;7.51;nan
76864;BME280;65834;52.364;9.754;2024-02-28T11:44:55;101550.38;;;7.52;nan
76864;BME280;65834;52.364;9.754;2024-02-28T11:47:28;101545.28;;;7.59;nan
76864;BME280;65834;52.364;9.754;2024-02-28T11:49:58;101558.44;;;7.62;nan
76864;BME280;65834;52.364;9.754;2024-02-28T11:52:30;101559.69;;;7.68;nan
76864;BME280;65834;52.364;9.754;2024-02-28T11:55:00;101561.13;;;7.72;nan
76864;BME280;65834;52.364;9.754;2024-02-28T11:57:32;101562.19;;;7.79;nan
76864;BME280;65834;52.364;9.754;2024-02-28T12:00:02;101564.59;;;7.82;nan
76864;BME280;65834;52.364;9.754;2024-02-28T12:02:35;101557.66;;;7.79;nan
76864;BME280;65834;52.364;9.754;2024-02-28T12:05:06;101559.38;;;7.80;nan
76864;BME280;65834;52.364;9.754;2024-02-28T12:07:36;101561.38;;;7.78;nan
76864;BME280;65834;52.364;9.754;2024-02-28T12:10:08;101551.44;;;7.79;nan
76864;BME280;65834;52.364;9.754;2024-02-28T12:12:41;101569.56;;;7.86;nan
76864;BME280;65834;52.364;9.754;2024-02-28T12:15:12;101566.72;;;7.88;nan
76864;BME280;65834;52.364;9.754;2024-02-28T12:17:43;101562.34;;;7.87;nan
76864;BME280;65834;52.364;9.754;2024-02-28T12:20:13;101560.94;;;7.83;nan
76864;BME280;65834;52.364;9.754;2024-02-28T12:22:43;101552.56;;;7.86;nan
76864;BME280;65834;52.364;9.754;2024-02-28T12:25:13;101551.69;;;7.85;nan
76864;BME280;65834;52.364;9.754;2024-02-28T12:27:47;101546.47;;;7.84;nan
76864;BME280;65834;52.364;9.754;2024-02-28T12:30:16;101551.41;;;7.88;nan
76864;BME280;65834;52.364;9.754;2024-02-28T12:32:47;101548.28;;;7.93;nan
76864;BME280;65834;52.364;9.754;2024-02-28T12:35:16;101547.69;;;7.99;nan
76864;BME280;65834;52.364;9.754;2024-02-28T12:37:47;101543.00;;;8.01;nan
76864;BME280;65834;52.364;9.754;2024-02-28T12:40:17;101542.41;;;8.07;nan
76864;BME280;65834;52.364;9.754;2024-02-28T12:42:49;101539.97;;;8.13;nan
76864;BME280;65834;52.364;9.754;2024-02-28T12:45:19;101539.53;;;8.18;nan
76864;BME280;65834;52.364;9.754;2024-02-28T12:47:49;101537.66;;;8.18;nan
76864;BME280;65834;52.364;9.754;2024-02-28T12:50:20;101537.22;;;8.23;nan
76864;BME280;65834;52.364;9.754;2024-02-28T12:52:51;101534.09;;;8.28;nan
76864;BME280;65834;52.364;9.754;2024-02-28T12:55:21;101528.25;;;8.32;nan
76864;BME280;65834;52.364;9.754;2024-02-28T12:57:54;101527.28;;;8.33;nan
76864;BME280;65834;52.364;9.754;2024-02-28T13:00:23;101525.09;;;8.37;nan
76864;BME280;65834;52.364;9.754;2024-02-28T13:02:53;101522.94;;;8.40;nan
76864;BME280;65834;52.364;9.754;2024-02-28T13:05:23;101531.59;;;8.44;nan
76864;BME280;65834;52.364;9.754;2024-02-28T13:07:56;101525.03;;;8.46;nan
76864;BME280;65834;52.364;9.754;2024-02-28T13:10:26;101520.66;;;8.45;nan
76864;BME280;65834;52.364;9.754;2024-02-28T13:12:59;101513.66;;;8.52;nan
76864;BME280;65834;52.364;9.754;2024-02-28T13:15:30;101517.38;;;8.51;nan
76864;BME280;65834;52.364;9.754;2024-02-28T13:17:59;101519.91;;;8.53;nan
76864;BME280;65834;52.364;9.754;2024-02-28T13:20:34;101512.22;;;8.58;nan
76864;BME280;65834;52.364;9.754;2024-02-28T13:23:05;101518.00;;;8.63;nan
76864;BME280;65834;52.364;9.754;2024-02-28T13:25:35;101507.88;;;8.65;nan
76864;BME280;65834;52.364;9.754;2024-02-28T13:28:07;101505.06;;;8.66;nan
76864;BME280;65834;52.364;9.754;2024-02-28T13:30:37;101502.97;;;8.60;nan
76864;BME280;65834;52.364;9.754;2024-02-28T13:33:07;101499.41;;;8.60;nan
76864;BME280;65834;52.364;9.754;2024-02-28T13:35:37;101495.94;;;8.67;nan
76864;BME280;65834;52.364;9.754;2024-02-28T13:38:07;101494.34;;;8.75;nan
76864;BME280;65834;52.364;9.754;2024-02-28T13:40:36;101495.03;;;8.77;nan
76864;BME280;65834;52.364;9.754;2024-02-28T13:43:10;101486.56;;;8.71;nan
76864;BME280;65834;52.364;9.754;2024-02-28T13:45:39;101483.00;;;8.71;nan